Flight Track Log - Related Links

Times and Time Zones

All times are in EDT time to prevent confusion due to time zone crossing. See the AAL1327 flight status page for this flight to view local times or setup timezone preferences in your user account.

Time Position Orientation Groundspeed Altitude Reporting Facility
EDT Latitude Longitude Course Direction KTS MPH feet Rate Location/Type
Thu 03:25:03 PM 40.7500 -73.8500 201° Southwest 156 180 1,300  Level New York TRACON
Thu 03:27:00 PM 40.5039 -73.9964 199° South  Level FlightAware Approximate
Thu 03:27:18 PM 40.8036 -73.8222 21° North 122 140 6,000  Level New York Center
Thu 03:28:00 PM 40.4133 -74.0367 199° South  Level FlightAware Approximate
Thu 03:28:18 PM 40.7658 -73.9056 239° Southwest 128 147 8,800  Level New York Center
Thu 03:29:00 PM 40.3235 -74.0800 201° Southwest  Level FlightAware Approximate
Thu 03:29:18 PM 40.6994 -73.9708 217° Southwest 213 245 11,200  Level New York Center
Thu 03:30:00 PM 40.2341 -74.1246 201° Southwest  Level FlightAware Approximate
Thu 03:30:18 PM 40.6308 -74.0497 221° Southwest 303 349 11,900  Level New York Center
Thu 03:31:18 PM 40.5600 -74.1228 218° Southwest 338 389 12,000 1,200 Climbing New York Center
Thu 03:32:18 PM 40.4758 -74.1486 193° South 338 389 14,300 2,500 Climbing New York Center
Thu 03:33:18 PM 40.3686 -74.1761 191° South 361 415 17,000 1,350 Climbing New York Center
Thu 03:34:18 PM 40.2767 -74.1933 188° South 368 423 17,000 984 Level New York Center
Thu 03:36:21 PM 40.0747 -74.2386 190° South 392 451 20,000 1,681 Climbing Washington Center
Thu 03:37:20 PM 39.9772 -74.2811 198° South 386 444 22,100 2,218 Climbing Washington Center
Thu 03:38:20 PM 39.8906 -74.3639 216° Southwest 374 430 24,400 1,884 Climbing Washington Center
Thu 03:39:21 PM 39.8019 -74.4517 217° Southwest 390 449 25,900 1,736 Climbing Washington Center
Thu 03:40:21 PM 39.7133 -74.5639 224° Southwest 405 466 27,900 1,750 Climbing Washington Center
Thu 03:41:21 PM 39.6328 -74.6756 227° Southwest 416 479 29,400 1,017 Climbing Washington Center
Thu 03:42:19 PM 39.5483 -74.7869 226° Southwest 428 493 29,900 305 Climbing Washington Center
Thu 03:43:19 PM 39.4656 -74.8953 225° Southwest 428 493 30,000  Climbing Washington Center
Thu 03:44:21 PM 39.3850 -75.0036 226° Southwest 428 493 29,900 350 Descending Washington Center
Thu 03:45:19 PM 39.3000 -75.1033 222° Southwest 428 493 30,700 1,271 Climbing Washington Center
Thu 03:46:19 PM 39.1833 -75.1658 203° Southwest 428 493 32,400 1,537 Climbing Washington Center
Thu 03:47:20 PM 39.0647 -75.2094 196° South 434 499 33,800 1,289 Climbing Washington Center
Thu 03:48:20 PM 38.9442 -75.2608 198° South 452 520 35,000 1,050 Climbing Washington Center
Thu 03:49:20 PM 38.8253 -75.3119 199° South 457 526 35,900 496 Climbing Washington Center
Thu 03:50:21 PM 38.7067 -75.3656 199° South 457 526 36,000 50 Climbing Washington Center
Thu 03:51:19 PM 38.5858 -75.4136 197° South 457 526 36,000 -50 Level Washington Center
Thu 03:52:20 PM 38.4692 -75.4725 202° Southwest 457 526 35,900  Descending Washington Center
Thu 03:53:20 PM 38.3586 -75.5336 203° Southwest 457 526 36,000 50 Climbing Washington Center
Thu 03:54:21 PM 38.2525 -75.5839 200° South 452 520 36,000  Level Washington Center
Thu 03:55:21 PM 38.1397 -75.6444 203° Southwest 447 514 36,000 -51 Level Washington Center
Thu 03:56:19 PM 38.0167 -75.7156 204° Southwest 447 514 35,900  Descending Washington Center
Thu 03:57:20 PM 37.9039 -75.7761 203° Southwest 442 509 36,000 49 Climbing Washington Center
Thu 03:58:21 PM 37.7892 -75.8336 202° Southwest 442 509 36,000  Level Washington Center
Thu 03:59:21 PM 37.6764 -75.8961 204° Southwest 447 514 36,000  Level Washington Center
Thu 04:00:21 PM 37.5636 -75.9558 203° Southwest 447 514 36,000  Level Washington Center
Thu 04:01:19 PM 37.4486 -76.0156 202° Southwest 442 509 36,000 -50 Level Washington Center
Thu 04:02:20 PM 37.3339 -76.0725 202° Southwest 442 509 35,900  Descending Washington Center
Thu 04:03:21 PM 37.2189 -76.1344 203° Southwest 442 509 36,000 50 Climbing Washington Center
Thu 04:04:21 PM 37.1122 -76.1806 199° South 447 514 36,000  Level Washington Center
Thu 04:05:22 PM 36.9992 -76.2394 203° Southwest 452 520 36,000  Level Washington Center
Thu 04:06:19 PM 36.8819 -76.3008 203° Southwest 452 520 36,000  Level Washington Center
Thu 04:07:19 PM 36.7692 -76.3594 203° Southwest 457 526 36,000  Level Washington Center
Thu 04:08:20 PM 36.6456 -76.4281 204° Southwest 457 526 36,000 496 Level Washington Center
Thu 04:09:20 PM 36.5283 -76.4864 202° Southwest 452 520 37,000 934 Climbing Washington Center
Thu 04:10:22 PM 36.4108 -76.5444 202° Southwest 452 520 37,900 504 Climbing Washington Center
Thu 04:11:19 PM 36.2936 -76.6022 202° Southwest 457 526 38,000  Climbing Washington Center
Thu 04:12:19 PM 36.1783 -76.6572 201° Southwest 457 526 37,900 -50 Descending Washington Center
Thu 04:13:20 PM 36.0611 -76.7200 203° Southwest 457 526 37,900  Level Washington Center
Thu 04:14:21 PM 35.9458 -76.7772 202° Southwest 457 526 37,900 50 Level Washington Center
Thu 04:15:21 PM 35.8303 -76.8372 203° Southwest 457 526 38,000 50 Climbing Washington Center
Thu 04:16:20 PM 35.7108 -76.8917 200° South 457 526 38,000  Level Washington Center
Thu 04:17:21 PM 35.6122 -76.9411 202° Southwest 457 526 38,000  Level Washington Center
Thu 04:18:21 PM 35.4906 -77.0028 202° Southwest 458 527 38,000  Level Washington Center
Thu 04:19:19 PM 35.3731 -77.0592 201° Southwest 458 527 38,000  Level Washington Center
Thu 04:20:19 PM 35.2533 -77.1181 202° Southwest 458 527 38,000  Level Washington Center
Thu 04:21:20 PM 35.1378 -77.1744 202° Southwest 458 527 38,000  Level Washington Center
Thu 04:22:20 PM 35.0222 -77.2331 203° Southwest 458 527 38,000  Level Washington Center
Thu 04:23:20 PM 34.9067 -77.2864 201° Southwest 458 527 38,000 -50 Level Washington Center
Thu 04:24:19 PM 34.7828 -77.3519 203° Southwest 451 519 37,900  Descending Washington Center
Thu 04:25:20 PM 34.6672 -77.4078 202° Southwest 451 519 38,000 50 Climbing Washington Center
Thu 04:26:20 PM 34.5517 -77.4606 201° Southwest 446 513 38,000  Level Washington Center
Thu 04:27:20 PM 34.4319 -77.4981 194° South 446 513 38,000 -50 Level Washington Center
Thu 04:28:21 PM 34.3083 -77.5381 195° South 451 519 37,900  Descending Washington Center
Thu 04:29:53 PM 34.1297 -77.5919 194° South 460 529 38,000 39 Climbing Jacksonville Center
Thu 04:30:53 PM 34.0083 -77.6319 195° South 468 539 38,000  Level Jacksonville Center
Thu 04:31:53 PM 33.8850 -77.6744 196° South 468 539 38,000  Level Jacksonville Center
Thu 04:32:53 PM 33.7656 -77.7114 194° South 461 531 38,000  Level Jacksonville Center
Thu 04:33:53 PM 33.6461 -77.7483 194° South 454 522 38,000  Level Jacksonville Center
Thu 04:34:53 PM 33.5286 -77.7878 196° South 448 516 38,000 -50 Level Jacksonville Center
Thu 04:35:53 PM 33.4111 -77.8242 194° South 448 516 37,900  Descending Jacksonville Center
Thu 04:36:53 PM 33.2958 -77.8581 194° South 443 510 38,000 50 Climbing Jacksonville Center
Thu 04:37:53 PM 33.1761 -77.8947 194° South 443 510 38,000 -50 Level Jacksonville Center
Thu 04:38:53 PM 33.0589 -77.9358 196° South 443 510 37,900  Descending Jacksonville Center
Thu 04:39:53 PM 32.9411 -77.9697 194° South 443 510 38,000 50 Climbing Jacksonville Center
Thu 04:40:53 PM 32.8236 -78.0058 194° South 443 510 38,000  Level Jacksonville Center
Thu 04:41:53 PM 32.7083 -78.0442 196° South 443 510 38,000 -50 Level Jacksonville Center
Thu 04:42:53 PM 32.5906 -78.0800 194° South 437 503 37,900 -50 Descending Jacksonville Center
Thu 04:43:53 PM 32.4750 -78.1156 195° South 432 497 37,900 50 Level Jacksonville Center
Thu 04:44:53 PM 32.3597 -78.1561 197° South 432 497 38,000 50 Climbing Jacksonville Center
Thu 04:45:53 PM 32.2400 -78.1894 193° South 432 497 38,000  Level Jacksonville Center
Thu 04:46:53 PM 32.1222 -78.2247 194° South 437 503 38,000  Level Jacksonville Center
Thu 04:47:53 PM 31.9922 -78.2681 196° South 437 503 38,000 -50 Level Jacksonville Center
Thu 04:48:53 PM 31.8747 -78.3058 195° South 437 503 37,900 -50 Descending Jacksonville Center
Thu 04:49:53 PM 31.7592 -78.3458 196° South 437 503 37,900  Level Jacksonville Center
Thu 04:50:53 PM 31.6456 -78.3781 194° South 426 490 37,900 50 Level Jacksonville Center
Thu 04:51:53 PM 31.5300 -78.4156 195° South 427 491 38,000 50 Climbing Jacksonville Center
Thu 04:52:53 PM 31.4144 -78.4503 194° South 427 491 38,000  Level Jacksonville Center
Thu 04:53:53 PM 31.2986 -78.4847 194° South 433 498 38,000  Level Jacksonville Center
Thu 04:54:53 PM 31.1853 -78.5242 197° South 431 496 38,000  Level Jacksonville Center
Thu 04:55:53 PM 31.0636 -78.5661 196° South 431 496 38,000  Level Jacksonville Center
Thu 04:56:53 PM 30.9497 -78.5981 194° South 425 489 38,000  Level Jacksonville Center
Thu 04:57:53 PM 30.8361 -78.6347 195° South 431 496 38,000  Level Jacksonville Center
Thu 04:58:53 PM 30.7183 -78.6714 195° South 436 502 38,000  Level Jacksonville Center
Thu 05:00:35 PM 30.5203 -78.7383 196° South 434 499 38,000 -37 Level Miami Center
Thu 05:01:35 PM 30.4028 -78.7794 197° South 434 499 37,900 -50 Descending Miami Center
Thu 05:02:35 PM 30.2856 -78.8206 197° South 440 506 37,900 50 Level Miami Center
Thu 05:03:35 PM 30.1892 -78.8547 197° South 450 518 38,000 50 Climbing Miami Center
Thu 05:04:35 PM 30.0719 -78.8981 198° South 433 498 38,000  Level Miami Center
Thu 05:05:35 PM 29.9461 -78.9461 198° South 433 498 38,000  Level Miami Center
Thu 05:06:35 PM 29.8331 -78.9844 196° South 427 491 38,000  Level Miami Center
Thu 05:07:35 PM 29.7158 -79.0108 191° South 427 491 38,000 -50 Level Miami Center
Thu 05:08:35 PM 29.5944 -79.0372 191° South 438 504 37,900  Descending Miami Center
Thu 05:09:35 PM 29.4711 -79.0561 188° South 444 511 38,000 50 Climbing Miami Center
Thu 05:10:35 PM 29.3497 -79.0797 190° South 450 518 38,000  Level Miami Center
Thu 05:12:35 PM 29.1028 -79.1247 189° South 450 518 38,000 -33 Level Miami Center
Thu 05:13:35 PM 28.9772 -79.1458 188° South 450 518 37,900  Descending Miami Center
Thu 05:14:35 PM 28.8539 -79.1694 190° South 450 518 38,000 -100 Climbing Miami Center
Thu 05:15:35 PM 28.7303 -79.1906 189° South 450 518 37,700 -700 Descending Miami Center
Thu 05:16:35 PM 28.6111 -79.2139 190° South 450 518 36,600 -2,000 Descending Miami Center
Thu 05:17:35 PM 28.4875 -79.2350 189° South 445 512 33,700 -2,550 Descending Miami Center
Thu 05:18:35 PM 28.3681 -79.2656 193° South 450 518 31,500 -1,550 Descending Miami Center
Thu 05:19:35 PM 28.2522 -79.3244 204° Southwest 450 518 30,600 -1,450 Descending Miami Center
Thu 05:20:35 PM 28.1367 -79.3806 203° Southwest 456 525 28,600 -2,200 Descending Miami Center
Thu 05:21:35 PM 28.0250 -79.4394 205° Southwest 451 519 26,200 -2,400 Descending Miami Center
Thu 05:22:35 PM 27.9153 -79.4908 202° Southwest 439 505 23,800 -2,350 Descending Miami Center
Thu 05:23:35 PM 27.8164 -79.5425 205° Southwest 411 473 21,500 -2,200 Descending Miami Center
Thu 05:24:35 PM 27.7172 -79.5942 205° Southwest 402 463 19,400 -2,100 Descending Miami Center
Thu 05:25:35 PM 27.6286 -79.6367 203° Southwest 402 463 17,300 -2,200 Descending Miami Center
Thu 05:26:35 PM 27.5317 -79.6858 204° Southwest 389 448 15,000 -2,350 Descending Miami Center
Thu 05:27:35 PM 27.4283 -79.7347 203° Southwest 376 433 12,600 -2,200 Descending Miami Center
Thu 05:28:35 PM 27.3397 -79.7794 204° Southwest 370 426 10,600 -1,300 Descending Miami Center
Thu 05:29:35 PM 27.2575 -79.8217 205° Southwest 345 397 10,000 -1,150 Descending Miami Center
Thu 05:30:35 PM 27.1900 -79.8550 204° Southwest 309 356 8,300 -1,100 Descending Miami Center
Thu 05:31:35 PM 27.1161 -79.8906 203° Southwest 295 339 7,800 -850 Descending Miami Center
Thu 05:32:35 PM 27.0444 -79.9328 208° Southwest 278 320 6,600 -1,200 Descending Miami Center
Thu 05:33:35 PM 26.9808 -79.9683 206° Southwest 263 303 5,400 -1,140 Descending Miami Center
Thu 05:34:36 PM 26.9214 -80.0111 213° Southwest 258 297 4,300 -700 Descending Miami Center
Thu 05:35:35 PM 26.8747 -80.0542 219° Southwest 253 291 4,000 -303 Descending Miami Center
Thu 05:36:35 PM 26.8233 -80.1039 221° Southwest 253 291 3,700 -750 Descending Miami Center
Thu 05:37:35 PM 26.7867 -80.1633 235° Southwest 253 291 2,500 -1,200 Descending Miami Center

Login

Don't have an account? Register now (free) for customized features, flight alerts, and more!